createdAt,value
2023-06-07T00:03:42.164Z,72.92
2023-06-07T00:13:49.541Z,73.30
2023-06-07T00:23:57.526Z,73.66
2023-06-07T00:34:05.179Z,73.67
2023-06-07T00:44:14.158Z,74.05
2023-06-07T00:54:23.192Z,74.45
2023-06-07T01:04:32.113Z,74.59
2023-06-07T01:14:37.885Z,74.96
2023-06-07T01:24:45.108Z,75.17
2023-06-07T01:34:52.218Z,75.49
2023-06-07T01:45:00.685Z,75.56
2023-06-07T01:55:07.199Z,75.68
2023-06-07T02:05:16.028Z,76.01
2023-06-07T02:15:22.739Z,76.06
2023-06-07T02:25:29.785Z,76.01
2023-06-07T02:35:37.086Z,76.11
2023-06-07T02:45:44.184Z,75.91
2023-06-07T02:55:51.517Z,76.21
2023-06-07T03:06:01.277Z,76.46
2023-06-07T03:16:07.636Z,76.45
2023-06-07T03:26:15.385Z,76.43
2023-06-07T03:36:22.286Z,76.58
2023-06-07T03:46:29.417Z,76.54
2023-06-07T03:56:36.524Z,76.84
2023-06-07T04:06:44.581Z,77.13
2023-06-07T04:16:52.160Z,77.34
2023-06-07T04:26:59.507Z,77.42
2023-06-07T04:37:05.623Z,77.35
2023-06-07T04:47:14.232Z,77.21
2023-06-07T04:57:23.509Z,77.04
2023-06-07T05:07:33.755Z,77.12
2023-06-07T05:17:42.050Z,77.13
2023-06-07T05:27:59.925Z,76.75
2023-06-07T05:38:16.926Z,76.43
2023-06-07T05:48:24.618Z,76.30
2023-06-07T05:58:31.406Z,76.30
2023-06-07T06:08:38.723Z,75.82
2023-06-07T06:18:45.497Z,75.47
2023-06-07T06:28:53.156Z,75.20
2023-06-07T06:39:00.243Z,75.12
2023-06-07T06:49:12.705Z,74.59
2023-06-07T06:59:20.415Z,74.48
2023-06-07T07:09:27.534Z,74.17
2023-06-07T07:19:35.002Z,73.65
2023-06-07T07:29:41.329Z,72.67
2023-06-07T07:39:49.323Z,71.77
2023-06-07T07:49:56.676Z,70.62
2023-06-07T08:00:04.150Z,69.78
2023-06-07T08:10:13.941Z,68.74
2023-06-07T08:20:21.776Z,67.68
2023-06-07T08:30:29.180Z,65.93
2023-06-07T08:40:36.499Z,64.37
2023-06-07T08:50:46.443Z,63.04
2023-06-07T09:00:56.000Z,62.39
2023-06-07T09:11:03.278Z,61.48
2023-06-07T09:21:14.469Z,58.99
2023-06-07T09:31:33.749Z,58.39
2023-06-07T09:41:41.311Z,57.14
2023-06-07T09:51:47.732Z,56.03
2023-06-07T10:01:55.129Z,54.05
2023-06-07T10:12:03.091Z,53.35
2023-06-07T10:22:15.315Z,52.34
2023-06-07T10:42:36.612Z,52.53
2023-06-07T10:52:55.964Z,53.28
2023-06-07T11:03:38.347Z,53.86
2023-06-07T11:14:10.893Z,53.59
2023-06-07T11:24:18.108Z,52.67
2023-06-07T11:44:31.649Z,50.77
2023-06-07T11:54:43.270Z,51.32
2023-06-07T12:04:51.820Z,50.91
2023-06-07T12:15:04.742Z,50.07
2023-06-07T12:25:10.112Z,48.46
2023-06-07T12:35:17.473Z,47.38
2023-06-07T12:45:24.940Z,46.33
2023-06-07T13:05:37.353Z,45.02
2023-06-07T13:15:44.617Z,45.18
2023-06-07T13:25:51.894Z,44.53
2023-06-07T13:46:03.951Z,43.61
2023-06-07T13:56:10.177Z,43.09
2023-06-07T14:06:19.185Z,43.02
2023-06-07T14:16:28.450Z,43.78
2023-06-07T14:26:36.819Z,44.05
2023-06-07T14:36:43.848Z,44.36
2023-06-07T14:46:51.207Z,43.55
2023-06-07T14:56:58.510Z,44.09
2023-06-07T15:07:04.314Z,44.72
2023-06-07T15:17:12.618Z,44.52
2023-06-07T15:27:20.379Z,43.89
2023-06-07T15:37:28.027Z,43.43
2023-06-07T15:47:36.417Z,44.20
2023-06-07T15:57:45.147Z,44.62
2023-06-07T16:07:52.212Z,44.79
2023-06-07T16:17:58.755Z,44.71
2023-06-07T16:28:06.407Z,44.21
2023-06-07T16:38:13.610Z,43.42
2023-06-07T16:48:20.940Z,44.94
2023-06-07T16:58:28.094Z,47.25
2023-06-07T17:08:35.406Z,49.57
2023-06-07T17:18:42.582Z,52.19
2023-06-07T17:28:49.705Z,54.15
2023-06-07T17:38:56.720Z,56.22
2023-06-07T17:49:03.987Z,56.93
2023-06-07T17:59:10.228Z,57.16
2023-06-07T18:09:17.267Z,58.08
2023-06-07T18:19:24.880Z,59.42
2023-06-07T18:29:32.240Z,60.83
2023-06-07T18:39:39.482Z,61.99
2023-06-07T18:49:46.604Z,62.39
2023-06-07T18:59:52.785Z,63.12
2023-06-07T19:10:01.235Z,63.59
2023-06-07T19:20:10.466Z,63.97
2023-06-07T19:30:16.506Z,64.68
2023-06-07T19:40:27.602Z,66.19
2023-06-07T19:50:34.828Z,66.90
2023-06-07T20:00:39.896Z,66.80
2023-06-07T20:10:46.401Z,67.19
2023-06-07T20:20:53.824Z,67.19
2023-06-07T20:31:05.440Z,67.83
2023-06-07T20:41:12.733Z,68.04
2023-06-07T20:51:19.988Z,68.54
2023-06-07T21:01:27.543Z,68.99
2023-06-07T21:11:35.040Z,69.45
2023-06-07T21:21:42.437Z,69.61
2023-06-07T21:31:49.463Z,70.23
2023-06-07T21:41:58.523Z,70.45
2023-06-07T21:52:05.919Z,70.94
2023-06-07T22:02:13.480Z,71.33
2023-06-07T22:12:21.559Z,71.65
2023-06-07T22:22:28.786Z,72.15
2023-06-07T22:32:37.200Z,72.64
2023-06-07T22:42:44.371Z,72.87
2023-06-07T22:52:54.006Z,73.11
2023-06-07T23:03:01.037Z,73.33
2023-06-07T23:13:08.847Z,73.94
2023-06-07T23:23:18.264Z,73.89
2023-06-07T23:33:26.464Z,73.88
2023-06-07T23:43:34.412Z,73.83
2023-06-07T23:53:41.629Z,74.16
